Time;durP1;ratioP1;P1;durP2;ratioP2;P2;SDS_P1;SDS_P2;PMS_P1;PMS_P2;Temp;Humidity;BMP_temperature;BMP_pressure;BME280_temperature;BME280_humidity;BME280_pressure;Samples;Min_cycle;Max_cycle;Signal;HPM_P1;HPM_P2
2022/02/11 00:01:20;;;;;;;11.02;8.88;;;8.60;99.90;;;;;;5090828;28;20659;-69
2022/02/11 00:06:42;;;;;;;11.40;9.85;;;8.10;99.90;;;;;;5090747;28;20220;-69
2022/02/11 00:09:11;;;;;;;15.20;8.80;;;8.00;99.90;;;;;;5090789;28;20206;-69
2022/02/11 00:11:39;;;;;;;11.40;9.18;;;7.90;99.90;;;;;;5090515;28;20209;-69
2022/02/11 00:14:08;;;;;;;11.85;9.05;;;8.00;99.90;;;;;;5090831;28;20208;-69
2022/02/11 00:16:38;;;;;;;9.43;8.50;;;8.20;99.90;;;;;;5090662;28;20337;-69
2022/02/11 00:19:05;;;;;;;14.23;8.85;;;8.30;99.90;;;;;;5090324;28;20252;-69
2022/02/11 00:21:32;;;;;;;9.80;8.05;;;8.50;99.90;;;;;;5090279;28;20288;-69
2022/02/11 00:23:59;;;;;;;9.60;7.80;;;8.50;99.90;;;;;;5090359;28;20199;-69
2022/02/11 00:26:32;;;;;;;10.18;7.68;;;8.50;99.90;;;;;;5090038;28;20222;-69
2022/02/11 00:32:05;;;;;;;9.88;7.80;;;8.60;99.90;;;;;;5090902;28;20565;-69
2022/02/11 00:34:40;;;;;;;9.80;8.07;;;8.70;99.90;;;;;;5091349;28;20582;-69
2022/02/11 00:37:10;;;;;;;11.05;7.65;;;8.70;99.90;;;;;;5090688;28;20597;-69
2022/02/11 00:45:48;;;;;;;8.57;7.20;;;8.90;99.90;;;;;;5090359;28;20218;-69
2022/02/11 01:02:40;;;;;;;9.48;6.90;;;8.40;99.90;;;;;;5015042;28;20721;-69
2022/02/11 01:05:07;;;;;;;8.48;7.00;;;8.40;99.90;;;;;;5052145;28;20647;-69
2022/02/11 01:07:34;;;;;;;8.43;7.18;;;8.40;99.90;;;;;;5076398;28;20220;-69
2022/02/11 01:10:01;;;;;;;9.70;8.20;;;8.30;99.90;;;;;;5076208;28;20289;-69
2022/02/11 01:12:29;;;;;;;9.30;7.65;;;8.20;99.90;;;;;;5075903;28;20209;-69
2022/02/11 01:14:57;;;;;;;9.18;7.05;;;8.20;99.90;;;;;;5075805;28;20227;-69
2022/02/11 01:17:31;;;;;;;10.93;7.47;;;8.10;99.90;;;;;;5075858;28;20222;-69
2022/02/11 01:20:03;;;;;;;9.02;7.18;;;8.00;99.90;;;;;;5075771;28;20615;-69
2022/02/11 01:22:54;;;;;;;9.30;7.20;;;8.00;99.90;;;;;;5076242;28;20622;-68
2022/02/11 01:25:42;;;;;;;7.13;6.32;;;7.90;99.90;;;;;;5075659;28;20233;-69
2022/02/11 01:28:15;;;;;;;6.28;5.20;;;7.90;99.90;;;;;;5075788;28;20625;-69
2022/02/11 01:30:57;;;;;;;8.82;7.00;;;7.90;99.90;;;;;;5076046;28;20298;-69
2022/02/11 01:36:33;;;;;;;7.80;6.25;;;7.80;99.90;;;;;;5059487;28;20673;-69
2022/02/11 01:39:31;;;;;;;9.30;7.18;;;7.90;99.90;;;;;;5075527;28;20565;-69
2022/02/11 01:45:13;;;;;;;7.90;7.10;;;7.80;99.90;;;;;;5075568;28;20673;-69
2022/02/11 01:50:43;;;;;;;8.30;6.85;;;7.90;99.90;;;;;;5049047;28;20194;-69
2022/02/11 01:53:20;;;;;;;7.88;6.75;;;7.90;99.90;;;;;;5075293;28;20239;-69
2022/02/11 01:56:11;;;;;;;9.57;6.35;;;8.00;99.90;;;;;;5075183;28;20343;-69
2022/02/11 01:59:21;;;;;;;7.40;5.13;;;8.00;99.90;;;;;;5074990;28;20222;-69
2022/02/11 02:02:20;;;;;;;10.40;6.53;;;8.10;99.90;;;;;;5073717;28;20278;-69
2022/02/11 02:13:42;;;;;;;7.55;6.20;;;8.20;99.90;;;;;;5074887;28;20202;-68
2022/02/11 02:22:07;;;;;;;6.07;4.88;;;8.20;99.90;;;;;;5074649;28;20327;-68
2022/02/11 02:24:48;;;;;;;6.35;4.53;;;8.20;99.90;;;;;;5074691;28;20280;-69
2022/02/11 02:27:37;;;;;;;8.02;4.82;;;8.10;99.90;;;;;;5074899;28;20179;-69
2022/02/11 02:36:05;;;;;;;5.78;4.15;;;8.00;99.90;;;;;;5074705;28;20253;-69
2022/02/11 02:57:47;;;;;;;5.53;4.70;;;8.00;99.90;;;;;;5074299;28;20261;-69
2022/02/11 03:00:50;;;;;;;6.70;5.20;;;7.90;99.90;;;;;;5074075;28;20249;-68
2022/02/11 03:14:47;;;;;;;6.22;4.82;;;7.60;99.90;;;;;;5074153;28;20682;-69
2022/02/11 03:50:32;;;;;;;2.53;2.30;;;6.40;99.90;;;;;;5073324;28;20202;-68
2022/02/11 03:53:58;;;;;;;1.35;1.25;;;6.20;99.90;;;;;;5073563;28;20278;-68
2022/02/11 04:57:02;;;;;;;6.00;4.78;;;4.40;99.90;;;;;;5152682;27;20179;-69
2022/02/11 05:02:02;;;;;;;5.53;4.63;;;4.40;99.90;;;;;;5152596;27;20200;-69
2022/02/11 05:04:29;;;;;;;4.75;3.97;;;4.40;99.90;;;;;;5152461;27;20206;-69
2022/02/11 05:06:58;;;;;;;4.22;3.75;;;4.50;99.90;;;;;;5152108;27;20218;-69
2022/02/11 05:09:25;;;;;;;5.82;4.72;;;4.40;99.90;;;;;;5152370;27;20615;-69
2022/02/11 05:11:52;;;;;;;5.40;4.78;;;4.50;99.90;;;;;;5152142;27;20654;-68
2022/02/11 05:14:18;;;;;;;5.68;5.00;;;4.60;99.90;;;;;;5152494;27;20196;-69
2022/02/11 05:16:45;;;;;;;4.85;4.35;;;4.60;99.90;;;;;;5152087;27;20200;-69
2022/02/11 05:19:13;;;;;;;5.47;4.85;;;4.60;99.90;;;;;;5151644;27;20275;-69
2022/02/11 05:21:40;;;;;;;6.63;5.72;;;4.60;99.90;;;;;;5151805;27;20206;-69
2022/02/11 05:24:07;;;;;;;18.75;11.07;;;4.30;99.90;;;;;;5151583;27;20200;-69
2022/02/11 05:26:34;;;;;;;5.78;5.10;;;4.30;99.90;;;;;;5151475;27;20724;-68
2022/02/11 05:29:01;;;;;;;5.50;4.90;;;4.30;99.90;;;;;;5151488;27;20224;-68
2022/02/11 05:31:28;;;;;;;4.57;2.85;;;4.40;99.90;;;;;;5151308;27;20200;-68
2022/02/11 05:33:54;;;;;;;7.55;5.15;;;4.40;99.90;;;;;;5151688;27;20753;-69
2022/02/11 05:36:23;;;;;;;6.97;5.18;;;4.40;99.90;;;;;;5151641;27;20225;-68
2022/02/11 05:38:49;;;;;;;5.45;4.35;;;4.40;99.90;;;;;;5148298;27;20291;-69
2022/02/11 05:41:16;;;;;;;4.78;4.18;;;4.50;99.90;;;;;;5137487;27;20682;-68
2022/02/11 05:43:43;;;;;;;6.13;4.88;;;4.50;99.90;;;;;;5137737;27;20205;-69
2022/02/11 05:46:10;;;;;;;4.88;4.25;;;4.50;99.90;;;;;;5137444;27;20225;-69
2022/02/11 05:48:39;;;;;;;5.20;4.20;;;4.50;99.90;;;;;;5137596;27;20221;-69
2022/02/11 05:51:07;;;;;;;5.78;4.40;;;4.50;99.90;;;;;;5137289;27;20208;-68
2022/02/11 05:53:35;;;;;;;7.15;4.35;;;4.60;99.90;;;;;;5137511;27;20205;-69
2022/02/11 05:56:02;;;;;;;5.10;4.40;;;4.60;99.90;;;;;;5137426;27;20227;-69
2022/02/11 05:58:29;;;;;;;5.47;4.05;;;4.60;99.90;;;;;;5137752;27;20203;-69
2022/02/11 06:00:56;;;;;;;4.75;4.28;;;4.60;99.90;;;;;;5137368;27;20299;-69
2022/02/11 06:03:23;;;;;;;6.78;4.68;;;4.70;99.90;;;;;;5137310;27;20201;-69
2022/02/11 06:05:50;;;;;;;5.18;4.68;;;4.70;99.90;;;;;;5137499;27;20220;-69
2022/02/11 06:08:16;;;;;;;4.95;3.90;;;4.70;99.90;;;;;;5137055;27;20265;-69
2022/02/11 06:10:45;;;;;;;5.90;4.93;;;4.70;99.90;;;;;;5137536;27;20239;-68
2022/02/11 06:13:11;;;;;;;5.53;4.43;;;4.80;99.90;;;;;;5137303;27;20677;-69
2022/02/11 06:15:38;;;;;;;6.18;4.78;;;4.80;99.90;;;;;;5137138;27;20221;-69
2022/02/11 06:18:05;;;;;;;5.28;4.72;;;4.70;99.90;;;;;;5137035;27;20226;-69
2022/02/11 06:20:32;;;;;;;6.50;4.95;;;4.70;99.90;;;;;;5136927;27;20207;-69
2022/02/11 06:22:59;;;;;;;5.03;4.15;;;4.70;99.90;;;;;;5137253;27;20573;-68
2022/02/11 06:25:26;;;;;;;6.40;4.90;;;4.70;99.90;;;;;;5137065;27;20378;-69
2022/02/11 06:27:54;;;;;;;5.88;5.05;;;4.60;99.90;;;;;;5136712;27;20243;-70
2022/02/11 06:30:21;;;;;;;7.85;4.75;;;4.70;99.90;;;;;;5136979;27;20300;-69
2022/02/11 06:32:48;;;;;;;6.20;5.18;;;4.70;99.90;;;;;;5137085;27;20196;-70
2022/02/11 06:35:15;;;;;;;5.80;5.20;;;4.70;99.90;;;;;;5136902;27;20220;-70
2022/02/11 06:37:45;;;;;;;8.38;5.20;;;4.70;99.90;;;;;;5136266;27;20215;-70
2022/02/11 06:40:14;;;;;;;5.90;4.80;;;4.70;99.90;;;;;;5136351;27;20256;-69
2022/02/11 06:42:41;;;;;;;8.77;5.70;;;4.70;99.90;;;;;;5136436;27;20209;-70
2022/02/11 06:45:10;;;;;;;6.68;5.45;;;4.70;99.90;;;;;;5136118;27;20220;-70
2022/02/11 06:47:37;;;;;;;6.75;5.40;;;4.70;99.90;;;;;;5136464;27;20559;-70
2022/02/11 06:50:05;;;;;;;6.45;4.95;;;4.70;99.90;;;;;;5136137;27;20185;-69
2022/02/11 06:52:32;;;;;;;5.13;4.43;;;4.70;99.90;;;;;;5136185;27;20236;-70
2022/02/11 06:54:59;;;;;;;6.68;5.30;;;4.60;99.90;;;;;;5135900;27;20311;-69
2022/02/11 06:57:25;;;;;;;9.70;6.00;;;4.60;99.90;;;;;;5136276;27;20197;-69
2022/02/11 06:59:52;;;;;;;8.38;5.80;;;4.60;99.90;;;;;;5135689;27;20757;-69
2022/02/11 07:02:20;;;;;;;5.55;4.47;;;4.60;99.90;;;;;;5136218;27;20287;-70
2022/02/11 07:04:48;;;;;;;5.88;5.15;;;4.60;99.90;;;;;;5136195;27;20311;-70
2022/02/11 07:07:15;;;;;;;8.35;5.80;;;4.50;99.90;;;;;;5136112;27;20204;-70
2022/02/11 07:09:42;;;;;;;7.07;4.57;;;4.50;99.90;;;;;;5135734;27;20221;-69
2022/02/11 07:12:10;;;;;;;7.53;5.10;;;4.50;99.90;;;;;;5135971;27;20572;-69
2022/02/11 07:14:37;;;;;;;6.20;5.10;;;4.40;99.90;;;;;;5135546;27;20227;-70
2022/02/11 07:17:04;;;;;;;7.43;4.72;;;4.50;99.90;;;;;;5135605;27;20296;-70
2022/02/11 07:19:35;;;;;;;6.00;5.15;;;4.50;99.90;;;;;;5135476;27;20662;-70
2022/02/11 07:22:02;;;;;;;7.80;5.38;;;4.60;99.90;;;;;;5135661;27;20670;-69
2022/02/11 07:24:30;;;;;;;5.50;4.18;;;4.60;99.90;;;;;;5135704;27;20209;-69
2022/02/11 07:26:57;;;;;;;6.47;5.78;;;4.60;99.90;;;;;;5135664;27;20287;-70
2022/02/11 07:29:24;;;;;;;6.25;4.13;;;4.50;99.90;;;;;;5135675;27;20585;-70
2022/02/11 07:31:51;;;;;;;7.13;5.53;;;4.60;99.90;;;;;;5135377;27;20205;-69
2022/02/11 07:34:18;;;;;;;6.18;4.78;;;4.60;99.90;;;;;;5135398;27;20207;-70
2022/02/11 07:36:46;;;;;;;5.93;4.25;;;4.60;99.90;;;;;;5135469;27;20208;-70
2022/02/11 07:39:13;;;;;;;6.63;5.60;;;4.60;99.90;;;;;;5135422;27;20193;-70
2022/02/11 07:41:40;;;;;;;5.93;5.32;;;4.60;99.90;;;;;;5135219;27;20291;-69
2022/02/11 07:44:07;;;;;;;5.95;5.13;;;4.60;99.90;;;;;;5135660;27;20300;-69
2022/02/11 07:46:35;;;;;;;7.10;5.53;;;4.70;99.90;;;;;;5135414;27;20246;-70
2022/02/11 07:49:01;;;;;;;10.57;5.95;;;4.70;99.90;;;;;;5135719;27;20620;-70
2022/02/11 07:51:29;;;;;;;5.38;4.53;;;4.80;99.90;;;;;;5135375;27;20227;-69
2022/02/11 07:53:58;;;;;;;6.00;4.80;;;4.80;99.90;;;;;;5135134;27;20608;-69
2022/02/11 07:56:26;;;;;;;13.35;8.60;;;4.70;99.90;;;;;;5135013;27;20278;-70
2022/02/11 07:58:53;;;;;;;5.85;5.03;;;4.70;99.90;;;;;;5135198;27;20226;-70
2022/02/11 08:01:20;;;;;;;6.53;5.30;;;4.80;99.90;;;;;;5134637;27;20675;-69
2022/02/11 08:03:48;;;;;;;6.38;5.15;;;4.70;99.90;;;;;;5134656;27;20208;-69
2022/02/11 08:06:14;;;;;;;6.60;5.22;;;4.80;99.90;;;;;;5134990;27;20252;-70
2022/02/11 08:08:41;;;;;;;6.47;4.75;;;4.70;99.90;;;;;;5134758;27;20265;-70
2022/02/11 08:11:10;;;;;;;6.85;4.38;;;4.80;99.90;;;;;;5135094;27;20283;-69
2022/02/11 08:13:37;;;;;;;5.60;4.47;;;4.70;99.90;;;;;;5134872;27;20598;-70
2022/02/11 08:16:05;;;;;;;6.20;4.68;;;4.70;99.90;;;;;;5134478;27;20225;-70
2022/02/11 08:18:32;;;;;;;4.28;3.88;;;4.70;99.90;;;;;;5134685;27;20684;-70
2022/02/11 08:20:58;;;;;;;6.13;4.65;;;4.80;99.90;;;;;;5134449;27;20661;-69
2022/02/11 08:23:25;;;;;;;8.07;5.38;;;4.80;99.90;;;;;;5134783;27;20295;-70
2022/02/11 08:25:52;;;;;;;5.22;4.40;;;4.70;99.90;;;;;;5134702;27;20227;-70
2022/02/11 08:28:20;;;;;;;7.88;5.00;;;4.80;99.90;;;;;;5134506;27;20221;-70
2022/02/11 08:30:49;;;;;;;5.38;4.43;;;4.80;99.90;;;;;;5134308;27;20292;-69
2022/02/11 08:33:17;;;;;;;5.00;3.70;;;4.90;99.90;;;;;;5134781;27;20201;-70
2022/02/11 08:35:45;;;;;;;7.53;4.95;;;5.00;99.90;;;;;;5134847;27;20682;-70
2022/02/11 08:38:12;;;;;;;7.00;5.22;;;5.10;99.90;;;;;;5134840;27;20265;-69
2022/02/11 08:40:38;;;;;;;4.30;3.80;;;5.20;99.90;;;;;;5134562;27;20196;-70
2022/02/11 08:43:05;;;;;;;5.53;4.00;;;5.20;99.90;;;;;;5134618;27;20295;-70
2022/02/11 08:45:37;;;;;;;6.60;4.00;;;5.30;99.90;;;;;;5134623;27;20225;-70
2022/02/11 08:48:05;;;;;;;5.28;4.00;;;5.30;99.90;;;;;;5134867;27;20185;-70
2022/02/11 08:50:31;;;;;;;5.13;4.38;;;5.30;99.90;;;;;;5134762;27;20207;-70
2022/02/11 08:52:58;;;;;;;6.00;3.80;;;5.30;99.90;;;;;;5134681;27;20200;-70
2022/02/11 08:55:25;;;;;;;4.60;4.20;;;5.40;99.90;;;;;;5134401;27;20311;-70
2022/02/11 08:57:53;;;;;;;5.35;3.80;;;5.30;99.90;;;;;;5134643;27;20201;-70
2022/02/11 09:00:20;;;;;;;5.40;3.78;;;5.30;99.90;;;;;;5134628;27;20197;-70
2022/02/11 09:02:48;;;;;;;6.10;3.97;;;5.20;99.90;;;;;;5134348;27;20247;-70
2022/02/11 09:05:15;;;;;;;4.28;3.80;;;5.20;99.90;;;;;;5134523;27;20256;-70
2022/02/11 09:07:41;;;;;;;4.60;3.70;;;5.20;99.90;;;;;;5134206;27;20288;-70
2022/02/11 09:10:09;;;;;;;5.20;3.97;;;5.10;99.90;;;;;;5134104;27;20698;-69
2022/02/11 09:12:36;;;;;;;10.05;5.43;;;5.20;99.90;;;;;;5134818;27;20212;-70
2022/02/11 09:15:04;;;;;;;10.27;5.53;;;5.20;99.90;;;;;;5136424;27;20748;-70
2022/02/11 09:17:30;;;;;;;6.60;4.63;;;5.20;99.90;;;;;;5138435;27;20733;-70
2022/02/11 09:19:58;;;;;;;5.45;3.65;;;5.00;99.90;;;;;;5138063;27;20204;-69
2022/02/11 09:22:25;;;;;;;7.53;3.95;;;5.10;99.90;;;;;;5137809;27;20207;-70
2022/02/11 09:24:54;;;;;;;5.15;3.70;;;5.10;99.90;;;;;;5137865;27;20225;-70
2022/02/11 09:27:21;;;;;;;3.88;3.45;;;5.20;99.90;;;;;;5137975;27;20204;-70
2022/02/11 09:29:48;;;;;;;5.35;3.78;;;5.20;99.90;;;;;;5138185;27;20324;-69
2022/02/11 09:32:15;;;;;;;6.82;3.67;;;5.20;99.90;;;;;;5138394;27;20730;-69
2022/02/11 09:34:42;;;;;;;5.88;3.90;;;5.30;99.90;;;;;;5137821;27;20224;-70
2022/02/11 09:37:10;;;;;;;6.07;3.47;;;5.30;99.90;;;;;;5137870;27;20295;-70
2022/02/11 09:39:37;;;;;;;6.80;3.60;;;5.30;99.90;;;;;;5137971;27;20200;-70
2022/02/11 09:42:04;;;;;;;4.40;3.58;;;5.30;99.90;;;;;;5137859;27;20200;-70
2022/02/11 09:44:33;;;;;;;4.82;4.10;;;5.30;99.90;;;;;;5137363;27;20215;-69
2022/02/11 09:47:00;;;;;;;4.35;3.95;;;5.30;99.90;;;;;;5137806;27;20201;-70
2022/02/11 09:49:27;;;;;;;9.63;4.32;;;5.40;99.90;;;;;;5137466;27;20221;-70
2022/02/11 09:51:54;;;;;;;4.68;3.25;;;5.50;99.90;;;;;;5137333;27;20565;-70
2022/02/11 09:54:23;;;;;;;4.90;3.78;;;5.60;99.90;;;;;;5138011;27;20594;-70
2022/02/11 09:56:50;;;;;;;5.10;2.67;;;5.70;99.90;;;;;;5137638;27;20205;-70
2022/02/11 09:59:18;;;;;;;4.40;2.60;;;5.70;99.90;;;;;;5137767;27;20554;-70
2022/02/11 10:01:45;;;;;;;4.85;3.60;;;5.80;99.90;;;;;;5137458;27;20208;-70
2022/02/11 10:04:15;;;;;;;3.63;3.05;;;5.80;99.90;;;;;;5137616;27;20718;-70
2022/02/11 10:06:42;;;;;;;4.18;3.00;;;5.90;99.90;;;;;;5137720;27;20200;-70
2022/02/11 10:09:09;;;;;;;3.20;2.90;;;5.90;99.90;;;;;;5137325;27;20694;-70
2022/02/11 10:11:38;;;;;;;3.92;3.22;;;5.90;99.90;;;;;;5137308;27;20197;-69
2022/02/11 10:14:19;;;;;;;5.10;3.00;;;6.00;99.90;;;;;;5137624;27;20682;-70
2022/02/11 10:16:53;;;;;;;5.22;3.35;;;6.00;99.90;;;;;;5137212;27;20676;-70
2022/02/11 10:19:42;;;;;;;3.70;3.35;;;6.00;99.90;;;;;;5137603;27;20196;-70
2022/02/11 10:22:11;;;;;;;4.00;3.40;;;6.10;99.90;;;;;;5137499;27;20205;-70
2022/02/11 10:24:39;;;;;;;4.90;3.65;;;6.20;99.90;;;;;;5137122;27;20225;-70
2022/02/11 10:27:22;;;;;;;6.97;4.68;;;6.30;99.90;;;;;;5136977;27;20203;-71
2022/02/11 10:29:51;;;;;;;4.15;2.95;;;6.40;99.90;;;;;;5137050;27;20296;-69
2022/02/11 10:32:18;;;;;;;6.15;4.53;;;6.60;99.90;;;;;;5137444;27;20196;-70
2022/02/11 10:34:52;;;;;;;3.72;3.20;;;6.80;99.90;;;;;;5137188;27;20231;-70
2022/02/11 10:37:19;;;;;;;3.47;3.05;;;6.80;99.90;;;;;;5137511;27;20216;-70
2022/02/11 10:39:56;;;;;;;5.47;3.50;;;6.90;99.90;;;;;;5137096;27;20262;-70
2022/02/11 10:42:42;;;;;;;5.25;3.55;;;7.10;99.90;;;;;;5137260;27;20201;-70
2022/02/11 10:45:37;;;;;;;4.82;3.40;;;7.00;99.90;;;;;;5136848;27;20231;-70
2022/02/11 10:48:15;;;;;;;2.97;2.78;;;6.80;99.90;;;;;;5122965;27;20678;-70
2022/02/11 10:50:46;;;;;;;5.43;3.50;;;6.80;99.90;;;;;;5136758;27;20585;-69
2022/02/11 10:53:22;;;;;;;4.50;3.50;;;6.80;99.90;;;;;;5136765;27;20205;-70
2022/02/11 10:55:50;;;;;;;3.63;2.38;;;6.80;99.90;;;;;;5136871;27;20220;-70
2022/02/11 10:58:19;;;;;;;4.45;2.58;;;7.00;99.90;;;;;;5136853;27;20303;-70
2022/02/11 11:00:46;;;;;;;4.90;3.90;;;6.90;99.90;;;;;;5136131;27;20562;-69
2022/02/11 11:03:14;;;;;;;6.60;3.80;;;6.80;99.90;;;;;;5137307;27;20291;-70
2022/02/11 11:05:42;;;;;;;5.45;3.17;;;6.90;99.90;;;;;;5136997;27;20231;-70
2022/02/11 11:08:10;;;;;;;4.70;3.00;;;6.90;99.90;;;;;;5136966;27;20229;-70
2022/02/11 11:10:41;;;;;;;5.53;3.10;;;7.10;99.90;;;;;;5136357;27;20243;-70
2022/02/11 11:13:11;;;;;;;5.70;3.38;;;7.30;99.90;;;;;;5136302;27;20201;-70
2022/02/11 11:15:39;;;;;;;3.40;3.10;;;7.50;99.90;;;;;;5136216;27;20221;-70
2022/02/11 11:18:07;;;;;;;4.45;3.10;;;7.60;99.90;;;;;;5135780;27;20211;-70
2022/02/11 11:20:35;;;;;;;6.75;3.55;;;7.90;99.90;;;;;;5135914;27;20274;-70
2022/02/11 11:23:10;;;;;;;5.25;3.60;;;8.20;99.90;;;;;;5135862;27;20257;-71
2022/02/11 11:26:02;;;;;;;6.07;3.15;;;8.30;98.30;;;;;;5135749;27;20765;-70
2022/02/11 11:28:39;;;;;;;5.15;3.35;;;8.30;98.10;;;;;;5135707;27;20217;-70
2022/02/11 11:31:12;;;;;;;4.20;2.67;;;8.40;97.80;;;;;;5135444;27;20720;-70
2022/02/11 11:33:39;;;;;;;5.13;3.70;;;8.20;98.00;;;;;;5136444;27;20200;-70
2022/02/11 11:36:08;;;;;;;4.82;3.60;;;8.00;97.90;;;;;;5136055;27;20224;-70
2022/02/11 11:38:56;;;;;;;5.13;3.17;;;7.70;97.90;;;;;;5135426;27;20678;-70
2022/02/11 11:41:25;;;;;;;4.18;3.78;;;7.50;98.60;;;;;;5127300;27;20663;-70
2022/02/11 11:43:54;;;;;;;5.05;4.00;;;7.60;99.50;;;;;;5135593;27;20207;-70
2022/02/11 11:46:47;;;;;;;5.70;3.38;;;7.40;99.20;;;;;;5135114;27;20231;-70
2022/02/11 11:49:15;;;;;;;4.35;3.63;;;7.50;99.90;;;;;;5135302;27;20207;-70
2022/02/11 11:52:05;;;;;;;4.95;3.90;;;7.40;99.20;;;;;;5135387;27;20204;-70
2022/02/11 11:54:32;;;;;;;4.40;2.80;;;7.50;99.90;;;;;;5135325;27;20233;-70
2022/02/11 11:57:01;;;;;;;4.63;3.35;;;7.50;99.00;;;;;;5135427;27;20737;-70
2022/02/11 11:59:31;;;;;;;4.10;3.10;;;7.40;98.10;;;;;;5135464;27;20196;-70
2022/02/11 12:02:01;;;;;;;5.13;3.42;;;7.40;98.60;;;;;;5135553;27;20200;-70
2022/02/11 12:04:29;;;;;;;3.05;2.30;;;7.50;98.30;;;;;;5135494;27;20197;-70
2022/02/11 12:06:59;;;;;;;3.90;3.08;;;7.60;98.50;;;;;;5135254;27;20228;-70
2022/02/11 12:09:26;;;;;;;4.55;2.72;;;7.50;97.40;;;;;;5135090;27;20566;-70
2022/02/11 12:11:55;;;;;;;5.63;2.75;;;7.50;97.50;;;;;;5135299;27;20295;-69
2022/02/11 12:14:22;;;;;;;3.05;2.67;;;7.60;96.70;;;;;;5135369;27;20201;-70
2022/02/11 12:16:49;;;;;;;2.40;2.20;;;7.70;96.70;;;;;;5135561;27;20203;-70
2022/02/11 12:19:17;;;;;;;7.65;2.58;;;7.90;96.70;;;;;;5135346;27;20236;-70
2022/02/11 12:21:44;;;;;;;3.80;2.83;;;8.10;95.50;;;;;;5135383;27;20207;-70
2022/02/11 12:29:49;;;;;;;4.80;2.83;;;8.00;94.60;;;;;;5135437;28;20605;-70
2022/02/11 12:32:16;;;;;;;4.07;2.80;;;8.10;94.50;;;;;;5135206;27;20188;-70
2022/02/11 12:34:50;;;;;;;2.67;2.45;;;7.90;93.50;;;;;;5134536;27;20224;-69
2022/02/11 12:37:18;;;;;;;3.25;2.35;;;7.80;93.10;;;;;;5135392;27;20253;-70
2022/02/11 12:39:45;;;;;;;2.78;2.55;;;7.70;93.50;;;;;;5134975;27;20291;-69
2022/02/11 12:42:17;;;;;;;4.18;2.60;;;7.80;92.70;;;;;;5134869;27;20678;-70
2022/02/11 12:44:44;;;;;;;3.53;2.75;;;7.80;93.50;;;;;;5134825;27;20216;-70
2022/02/11 12:47:11;;;;;;;4.18;2.28;;;7.90;93.60;;;;;;5134786;27;20207;-70
2022/02/11 12:49:44;;;;;;;4.10;1.73;;;7.80;93.30;;;;;;5136387;27;20234;-70
2022/02/11 12:52:18;;;;;;;3.08;2.50;;;7.50;93.20;;;;;;5139100;27;20209;-70
2022/02/11 12:54:57;;;;;;;3.53;2.15;;;7.50;94.20;;;;;;5139018;27;20590;-70
2022/02/11 12:57:24;;;;;;;3.85;2.50;;;7.50;94.00;;;;;;5138975;27;20542;-70
2022/02/11 12:59:52;;;;;;;5.10;2.90;;;7.40;93.70;;;;;;5138547;27;20199;-69
2022/02/11 13:02:27;;;;;;;2.85;2.47;;;7.40;94.40;;;;;;5138783;27;20201;-70
2022/02/11 13:05:05;;;;;;;4.80;3.53;;;7.30;94.90;;;;;;5138520;27;20224;-70
2022/02/11 13:07:35;;;;;;;3.38;3.15;;;7.40;95.00;;;;;;5139116;27;20193;-70
2022/02/11 13:10:02;;;;;;;5.03;2.60;;;7.50;95.10;;;;;;5138257;27;20247;-69
2022/02/11 13:12:37;;;;;;;7.45;2.88;;;7.50;94.90;;;;;;5138422;27;20296;-70
2022/02/11 13:15:05;;;;;;;3.25;2.85;;;7.70;95.40;;;;;;5138623;27;20582;-70
2022/02/11 13:17:32;;;;;;;8.35;3.28;;;7.70;94.50;;;;;;5138595;27;20209;-70
2022/02/11 13:20:13;;;;;;;3.55;3.20;;;7.70;94.70;;;;;;5138354;27;20193;-69
2022/02/11 13:22:44;;;;;;;3.25;2.95;;;7.60;94.90;;;;;;5138153;27;20203;-70
2022/02/11 13:25:12;;;;;;;4.15;3.38;;;7.50;95.20;;;;;;5139598;27;20221;-70
2022/02/11 13:27:45;;;;;;;3.45;3.15;;;7.50;95.80;;;;;;5139151;27;20208;-70
2022/02/11 13:30:13;;;;;;;5.40;3.83;;;7.60;95.90;;;;;;5138972;27;20239;-70
2022/02/11 13:32:41;;;;;;;3.92;3.53;;;7.80;95.80;;;;;;5138957;27;20209;-70
2022/02/11 13:35:09;;;;;;;3.00;2.80;;;7.80;95.10;;;;;;5139072;27;20224;-70
2022/02/11 13:37:37;;;;;;;4.95;4.20;;;7.90;95.20;;;;;;5138578;27;20205;-70
2022/02/11 13:40:16;;;;;;;4.68;2.92;;;7.90;94.90;;;;;;5137607;27;20292;-69
2022/02/11 13:42:53;;;;;;;4.93;3.83;;;7.90;95.00;;;;;;5138197;27;20185;-70
2022/02/11 13:45:20;;;;;;;5.60;2.90;;;7.80;95.80;;;;;;5137459;27;20315;-69
2022/02/11 13:48:08;;;;;;;5.88;3.95;;;7.80;94.80;;;;;;5137505;27;20209;-69
2022/02/11 13:50:58;;;;;;;4.00;2.83;;;7.70;94.30;;;;;;5137356;27;20209;-69
2022/02/11 13:53:34;;;;;;;3.58;3.00;;;7.70;95.30;;;;;;5137515;27;20234;-70
2022/02/11 13:56:03;;;;;;;5.35;2.90;;;7.90;95.10;;;;;;5137528;27;20217;-69
2022/02/11 13:58:30;;;;;;;4.03;2.85;;;8.00;94.70;;;;;;5137550;27;20196;-70
2022/02/11 14:00:58;;;;;;;3.10;2.80;;;7.90;94.70;;;;;;5137216;27;20222;-69
2022/02/11 14:03:27;;;;;;;4.18;2.65;;;8.00;94.60;;;;;;5137495;27;20204;-70
2022/02/11 14:05:56;;;;;;;4.57;4.18;;;8.00;94.70;;;;;;5137434;27;20701;-70
2022/02/11 14:08:23;;;;;;;4.07;3.40;;;8.00;94.30;;;;;;5137431;27;20296;-70
2022/02/11 14:11:10;;;;;;;4.50;3.22;;;7.80;94.80;;;;;;5137292;27;20217;-69
2022/02/11 14:13:37;;;;;;;1.63;1.52;;;7.80;94.60;;;;;;5137238;27;20204;-70
2022/02/11 14:16:04;;;;;;;5.28;1.95;;;7.70;93.50;;;;;;5136728;27;20221;-69
2022/02/11 14:18:31;;;;;;;3.60;2.85;;;7.50;92.90;;;;;;5136928;27;20223;-69
2022/02/11 14:20:58;;;;;;;5.55;3.00;;;7.50;93.30;;;;;;5136760;27;20196;-69
2022/02/11 14:23:25;;;;;;;4.50;2.60;;;7.60;93.90;;;;;;5136958;27;20201;-69
2022/02/11 14:25:52;;;;;;;3.42;2.95;;;7.70;93.90;;;;;;5136784;27;20224;-69
2022/02/11 14:28:23;;;;;;;6.60;3.03;;;7.70;93.20;;;;;;5136626;27;20208;-70
2022/02/11 14:30:50;;;;;;;4.85;2.47;;;7.80;93.80;;;;;;5136177;27;20228;-69
2022/02/11 14:33:17;;;;;;;2.70;2.38;;;7.80;93.50;;;;;;5136643;27;20677;-70
2022/02/11 14:35:44;;;;;;;2.60;2.40;;;7.70;92.50;;;;;;5136874;27;20337;-69
2022/02/11 14:38:10;;;;;;;4.72;2.65;;;7.70;93.00;;;;;;5136502;27;20714;-69
2022/02/11 14:41:45;;;;;;;4.53;2.60;;;7.60;92.40;;;;;;5136353;27;20199;-69
2022/02/11 14:43:27;;;;;;;3.05;2.53;;;7.60;92.70;;;;;;5136246;27;20209;-69
2022/02/11 14:45:55;;;;;;;6.15;4.10;;;7.40;92.20;;;;;;5136172;27;20227;-69
2022/02/11 14:48:22;;;;;;;4.93;2.40;;;7.30;91.80;;;;;;5136476;27;20551;-69
2022/02/11 14:50:49;;;;;;;2.60;2.40;;;7.20;92.00;;;;;;5135985;27;20213;-69
2022/02/11 14:53:16;;;;;;;2.60;2.35;;;7.20;92.30;;;;;;5136299;27;20201;-69
2022/02/11 14:55:43;;;;;;;2.35;2.15;;;7.30;92.20;;;;;;5136231;27;20220;-69
2022/02/11 14:58:10;;;;;;;5.10;3.03;;;7.40;92.10;;;;;;5136425;27;20201;-69
2022/02/11 15:00:39;;;;;;;3.20;2.92;;;7.30;92.00;;;;;;5135702;27;20197;-69
2022/02/11 15:03:06;;;;;;;3.10;2.65;;;7.40;92.60;;;;;;5136420;27;20292;-69
2022/02/11 15:05:33;;;;;;;3.55;2.70;;;7.40;92.60;;;;;;5136268;27;20315;-69
2022/02/11 15:08:00;;;;;;;5.13;2.88;;;7.40;92.90;;;;;;5136115;27;20201;-69
2022/02/11 15:10:27;;;;;;;4.13;3.25;;;7.40;93.30;;;;;;5135764;27;20216;-69
2022/02/11 15:12:54;;;;;;;3.42;3.13;;;7.40;94.00;;;;;;5134999;27;20291;-69
2022/02/11 15:15:20;;;;;;;3.90;3.60;;;7.30;94.20;;;;;;5135532;27;20217;-69
2022/02/11 15:17:49;;;;;;;6.95;3.67;;;7.20;94.70;;;;;;5135942;27;20201;-70
2022/02/11 15:20:15;;;;;;;4.15;3.00;;;7.20;94.60;;;;;;5135782;27;20201;-69
2022/02/11 15:22:42;;;;;;;3.88;2.65;;;7.20;94.10;;;;;;5135964;27;20232;-69
2022/02/11 15:25:09;;;;;;;4.07;2.50;;;7.20;93.80;;;;;;5135280;27;20220;-69
2022/02/11 15:27:36;;;;;;;3.67;2.70;;;7.20;93.40;;;;;;5135391;27;20219;-69
2022/02/11 15:30:04;;;;;;;5.20;3.03;;;7.10;92.90;;;;;;5135595;27;20215;-69
2022/02/11 15:32:31;;;;;;;2.47;1.77;;;7.10;92.80;;;;;;5135688;27;20620;-69
2022/02/11 15:34:59;;;;;;;4.50;3.58;;;7.00;92.50;;;;;;5135665;27;20226;-69
2022/02/11 15:37:25;;;;;;;3.58;3.00;;;7.10;93.10;;;;;;5135722;27;20563;-69
2022/02/11 15:39:52;;;;;;;3.10;2.70;;;7.10;92.90;;;;;;5135716;27;20620;-69
2022/02/11 15:42:19;;;;;;;3.80;2.70;;;7.00;93.00;;;;;;5135481;27;20204;-69
2022/02/11 15:44:46;;;;;;;5.05;3.10;;;7.00;92.80;;;;;;5135643;27;20223;-69
2022/02/11 15:47:13;;;;;;;3.92;3.03;;;7.10;93.10;;;;;;5135310;27;20204;-69
2022/02/11 15:49:39;;;;;;;3.72;2.80;;;7.10;93.40;;;;;;5135009;27;20730;-69
2022/02/11 15:52:09;;;;;;;3.55;2.60;;;7.20;93.20;;;;;;5135262;27;20307;-67
2022/02/11 15:54:36;;;;;;;3.53;2.88;;;7.20;93.40;;;;;;5135155;27;20216;-67
2022/02/11 15:57:03;;;;;;;4.38;3.58;;;7.20;93.50;;;;;;5135268;27;20215;-67
2022/02/11 15:59:31;;;;;;;7.68;3.53;;;7.20;93.20;;;;;;5135103;27;20207;-69
2022/02/11 16:01:57;;;;;;;4.82;3.17;;;7.20;93.20;;;;;;5134881;27;20197;-69
2022/02/11 16:04:24;;;;;;;5.88;3.10;;;7.10;93.60;;;;;;5135064;27;20295;-70
2022/02/11 16:06:51;;;;;;;6.28;4.13;;;7.10;93.40;;;;;;5135254;27;20200;-70
2022/02/11 16:09:19;;;;;;;7.82;3.60;;;7.00;93.60;;;;;;5135182;27;20674;-70
2022/02/11 16:11:46;;;;;;;7.15;3.53;;;7.00;94.40;;;;;;5134760;27;20227;-69
2022/02/11 16:14:16;;;;;;;3.42;3.13;;;7.00;94.20;;;;;;5135086;27;20291;-69
2022/02/11 16:16:43;;;;;;;3.88;3.00;;;7.10;94.30;;;;;;5135163;27;20208;-70
2022/02/11 16:19:10;;;;;;;8.10;3.40;;;7.10;94.40;;;;;;5135056;27;20204;-69